Time;durP1;ratioP1;P1;durP2;ratioP2;P2;SDS_P1;SDS_P2;PMS_P1;PMS_P2;Temp;Humidity;BMP_temperature;BMP_pressure;BME280_temperature;BME280_humidity;BME280_pressure;Samples;Min_cycle;Max_cycle;Signal;HPM_P1;HPM_P2
2022/05/05 00:01:50;;;;;;;;;;;;;10.20;97815.20;;;;110917;1251;41243;-65
2022/05/05 00:04:22;;;;;;;9.60;5.10;;;;;10.12;97809.80;;;;110949;1252;41167;-67
2022/05/05 00:06:53;;;;;;;9.90;4.50;;;;;10.18;97810.60;;;;110831;1252;41692;-66
2022/05/05 00:09:24;;;;;;;9.30;4.40;;;;;10.18;97816.80;;;;110748;1251;41146;-66
2022/05/05 00:14:44;;;;;;;9.10;4.30;;;;;10.10;97822.80;;;;110844;1253;41184;-66
2022/05/05 00:17:14;;;;;;;9.70;5.30;;;;;10.10;97822.40;;;;110858;1252;42363;-66
2022/05/05 00:19:45;;;;;;;11.80;5.80;;;;;10.10;97826.20;;;;110878;1252;41534;-66
2022/05/05 00:22:17;;;;;;;10.10;5.30;;;;;10.10;97828.60;;;;110877;1251;41929;-66
2022/05/05 00:24:49;;;;;;;13.70;5.40;;;;;10.10;97834.60;;;;110961;1250;41257;-65
2022/05/05 00:27:22;;;;;;;10.80;5.10;;;;;10.10;97834.40;;;;110884;1250;41271;-67
2022/05/05 00:29:54;;;;;;;12.20;6.60;;;;;10.10;97834.80;;;;111083;1251;41182;-67
2022/05/05 00:32:24;;;;;;;14.90;7.10;;;;;10.10;97836.00;;;;111014;1251;41276;-65
2022/05/05 00:34:56;;;;;;;16.90;7.00;;;;;10.00;97836.20;;;;110870;1251;41152;-66
2022/05/05 00:37:26;;;;;;;;;;;;;9.90;97834.80;;;;110862;1251;41914;-66
2022/05/05 00:39:57;;;;;;;11.20;5.80;;;;;9.88;97831.60;;;;110812;1250;41145;-66
2022/05/05 00:42:28;;;;;;;11.70;5.60;;;;;9.90;97830.40;;;;110622;1254;41166;-66
2022/05/05 00:45:00;;;;;;;11.00;6.00;;;;;9.90;97833.20;;;;110850;1252;41146;-66
2022/05/05 00:47:32;;;;;;;11.40;6.40;;;;;9.90;97829.60;;;;110679;1251;41145;-66
2022/05/05 00:50:05;;;;;;;11.80;5.60;;;;;9.90;97829.20;;;;110716;1253;41268;-65
2022/05/05 00:52:35;;;;;;;13.00;5.60;;;;;9.98;97829.20;;;;110896;1250;41884;-66
2022/05/05 00:55:05;;;;;;;11.40;5.60;;;;;10.00;97835.40;;;;110726;1253;41140;-65
2022/05/05 00:57:37;;;;;;;11.60;5.30;;;;;10.00;97836.60;;;;110648;1252;41152;-66
2022/05/05 01:00:07;;;;;;;10.30;5.10;;;;;10.00;97836.00;;;;110689;1253;41159;-66
2022/05/05 01:02:38;;;;;;;9.80;5.00;;;;;10.06;97835.20;;;;110804;1252;41346;-66
2022/05/05 01:05:08;;;;;;;10.20;5.10;;;;;10.10;97841.80;;;;110770;1253;41142;-66
2022/05/05 01:07:39;;;;;;;8.50;4.10;;;;;10.10;97840.20;;;;110765;1251;41146;-66
2022/05/05 01:10:09;;;;;;;8.40;4.30;;;;;10.10;97835.40;;;;110688;1253;41151;-65
2022/05/05 01:12:39;;;;;;;10.20;4.90;;;;;10.16;97841.20;;;;110846;1252;41452;-66
2022/05/05 01:15:10;;;;;;;10.80;4.90;;;;;10.18;97839.20;;;;110802;1252;41158;-66
2022/05/05 01:17:40;;;;;;;10.30;5.40;;;;;10.20;97843.20;;;;110783;1253;41139;-66
2022/05/05 01:20:12;;;;;;;11.90;5.40;;;;;10.20;97847.80;;;;110620;1253;41642;-66
2022/05/05 01:22:42;;;;;;;11.20;4.60;;;;;10.20;97846.20;;;;110942;1250;42244;-67
2022/05/05 01:28:11;;;;;;;10.00;4.70;;;;;10.30;97844.80;;;;110917;1251;41634;-67
2022/05/05 01:30:45;;;;;;;11.90;5.00;;;;;10.30;97843.80;;;;110944;1251;41859;-66
2022/05/05 01:33:24;;;;;;;9.60;4.90;;;;;10.40;97839.40;;;;110827;1251;41310;-65
2022/05/05 01:35:56;;;;;;;13.70;4.60;;;;;10.40;97839.60;;;;110775;1251;42028;-66
2022/05/05 01:38:35;;;;;;;10.50;4.80;;;;;10.40;97840.40;;;;110895;1252;41362;-66
2022/05/05 01:41:08;;;;;;;11.00;5.70;;;;;10.40;97840.20;;;;110870;1251;41400;-66
2022/05/05 01:43:40;;;;;;;8.90;4.60;;;;;10.40;97842.60;;;;110883;1251;41144;-65
2022/05/05 01:46:10;;;;;;;9.40;4.20;;;;;10.46;97841.80;;;;110931;1253;41143;-65
2022/05/05 01:48:40;;;;;;;9.20;4.10;;;;;10.50;97847.40;;;;110710;1253;41151;-65
2022/05/05 01:51:10;;;;;;;8.80;4.40;;;;;10.50;97848.40;;;;110775;1253;41251;-66
2022/05/05 01:53:41;;;;;;;10.70;4.70;;;;;10.50;97851.80;;;;110971;1250;42457;-66
2022/05/05 01:56:12;;;;;;;11.70;5.70;;;;;10.52;97849.20;;;;110775;1251;41168;-66
2022/05/05 01:58:42;;;;;;;9.60;5.00;;;;;10.60;97852.80;;;;110685;1253;41958;-67
2022/05/05 02:01:13;;;;;;;9.70;5.10;;;;;10.60;97853.40;;;;110438;1254;41164;-66
2022/05/05 02:03:44;;;;;;;10.30;4.50;;;;;10.60;97853.00;;;;110633;1253;41258;-66
2022/05/05 02:06:16;;;;;;;11.50;5.80;;;;;10.60;97854.20;;;;110752;1253;42074;-66
2022/05/05 02:08:46;;;;;;;13.80;6.70;;;;;10.60;97853.80;;;;110812;1251;41416;-67
2022/05/05 02:11:16;;;;;;;11.60;6.00;;;;;10.50;97851.00;;;;110767;1251;41148;-65
2022/05/05 02:13:47;;;;;;;9.70;4.60;;;;;10.40;97848.40;;;;110658;1251;41845;-66
2022/05/05 02:16:17;;;;;;;;;;;;;10.40;97849.40;;;;110817;1251;41586;-65
2022/05/05 02:18:49;;;;;;;9.50;4.70;;;;;10.38;97854.80;;;;110662;1252;41339;-66
2022/05/05 02:21:19;;;;;;;12.80;6.70;;;;;10.34;97850.40;;;;110926;1251;41156;-66
2022/05/05 02:23:49;;;;;;;13.00;7.20;;;;;10.40;97845.20;;;;110870;1250;41283;-67
2022/05/05 02:26:19;;;;;;;14.30;8.20;;;;;10.36;97840.40;;;;110758;1250;41615;-66
2022/05/05 02:28:50;;;;;;;13.30;7.40;;;;;10.30;97836.20;;;;110838;1252;41264;-66
2022/05/05 02:31:21;;;;;;;13.40;6.70;;;;;10.20;97830.80;;;;110693;1253;41230;-67
2022/05/05 02:33:52;;;;;;;11.40;6.30;;;;;10.20;97832.80;;;;110904;1251;41960;-65
2022/05/05 02:39:11;;;;;;;12.60;6.80;;;;;10.20;97842.00;;;;110670;1251;41718;-66
2022/05/05 02:41:40;;;;;;;12.10;6.60;;;;;10.18;97839.60;;;;110810;1251;41593;-66
2022/05/05 02:44:10;;;;;;;11.90;6.30;;;;;10.20;97844.20;;;;110715;1253;41935;-66
2022/05/05 02:46:40;;;;;;;13.70;7.00;;;;;10.20;97845.60;;;;110936;1248;41860;-65
2022/05/05 02:49:12;;;;;;;11.10;6.10;;;;;10.20;97848.80;;;;110776;1251;41384;-66
2022/05/05 02:51:43;;;;;;;9.30;5.00;;;;;10.20;97849.00;;;;110806;1253;41327;-66
2022/05/05 02:57:01;;;;;;;11.30;5.10;;;;;10.20;97853.60;;;;110803;1249;42099;-66
2022/05/05 02:59:31;;;;;;;11.10;6.00;;;;;10.20;97857.20;;;;110745;1251;41182;-66
2022/05/05 03:02:01;;;;;;;12.90;6.80;;;;;10.20;97861.80;;;;110790;1250;41719;-67
2022/05/05 03:04:31;;;;;;;12.70;7.00;;;;;10.20;97861.40;;;;110605;1253;41669;-67
2022/05/05 03:07:01;;;;;;;13.90;7.40;;;;;10.20;97860.80;;;;110703;1250;41174;-65
2022/05/05 03:09:31;;;;;;;11.30;5.90;;;;;10.16;97858.80;;;;110697;1250;41620;-65
2022/05/05 03:12:00;;;;;;;11.00;5.90;;;;;10.10;97863.00;;;;110670;1252;41281;-65
2022/05/05 03:14:30;;;;;;;11.00;5.80;;;;;10.10;97862.80;;;;110833;1251;42363;-65
2022/05/05 03:17:01;;;;;;;10.50;5.70;;;;;10.08;97863.80;;;;110847;1251;41254;-66
2022/05/05 03:19:31;;;;;;;10.40;5.40;;;;;10.00;97869.80;;;;110845;1251;42406;-65
2022/05/05 03:22:00;;;;;;;10.10;5.30;;;;;10.00;97872.00;;;;110902;1251;41668;-66
2022/05/05 03:24:30;;;;;;;9.60;5.60;;;;;10.00;97874.20;;;;110712;1252;41715;-67
2022/05/05 03:27:01;;;;;;;9.50;5.10;;;;;10.00;97879.80;;;;110740;1251;41609;-67
2022/05/05 03:29:32;;;;;;;10.90;5.40;;;;;9.90;97882.00;;;;110880;1250;41574;-66
2022/05/05 03:32:04;;;;;;;11.20;5.80;;;;;9.90;97885.40;;;;110881;1251;41169;-67
2022/05/05 03:34:35;;;;;;;10.30;5.80;;;;;9.90;97883.60;;;;110893;1251;41230;-65
2022/05/05 03:37:06;;;;;;;12.00;6.50;;;;;9.90;97881.60;;;;110658;1253;41190;-65
2022/05/05 03:39:36;;;;;;;13.80;6.80;;;;;9.90;97884.40;;;;110801;1251;41869;-66
2022/05/05 03:42:08;;;;;;;11.00;5.80;;;;;9.90;97883.80;;;;110662;1252;41652;-66
2022/05/05 03:44:39;;;;;;;14.50;7.70;;;;;9.90;97887.40;;;;110743;1251;42843;-66
2022/05/05 03:47:08;;;;;;;14.40;8.50;;;;;9.90;97893.80;;;;110686;1253;41141;-66
2022/05/05 03:49:38;;;;;;;14.90;8.00;;;;;9.90;97892.80;;;;110968;1251;42398;-66
2022/05/05 03:52:09;;;;;;;13.60;7.10;;;;;9.90;97898.40;;;;110800;1251;41649;-65
2022/05/05 03:54:39;;;;;;;13.70;7.70;;;;;9.90;97905.20;;;;110922;1250;41137;-66
2022/05/05 03:57:09;;;;;;;13.10;8.30;;;;;9.90;97907.00;;;;110801;1251;41899;-66
2022/05/05 03:59:39;;;;;;;14.50;7.10;;;;;10.22;97880.00;;;;110761;1250;41264;-66
2022/05/05 04:02:08;;;;;;;12.50;6.80;;;;;10.86;97875.80;;;;110850;1251;41995;-67
2022/05/05 04:04:38;;;;;;;12.70;6.80;;;;;11.62;97878.80;;;;110734;1252;41184;-66
2022/05/05 04:07:07;;;;;;;12.10;6.30;;;;;12.22;97880.00;;;;110833;1251;41884;-65
2022/05/05 04:09:36;;;;;;;11.20;6.00;;;;;12.78;97877.40;;;;110731;1252;42002;-66
2022/05/05 04:12:07;;;;;;;11.20;5.80;;;;;13.20;97885.20;;;;110884;1251;41141;-66
2022/05/05 04:14:36;;;;;;;11.80;7.00;;;;;13.74;97886.80;;;;110893;1251;41167;-66
2022/05/05 04:17:05;;;;;;;13.00;6.70;;;;;14.10;97890.80;;;;110573;1254;41321;-66
2022/05/05 04:19:34;;;;;;;14.10;7.70;;;;;14.20;97889.00;;;;110732;1251;40748;-66
2022/05/05 04:22:04;;;;;;;12.40;6.80;;;;;14.30;97890.60;;;;110772;1251;41166;-66
2022/05/05 04:24:33;;;;;;;12.00;6.50;;;;;14.30;97887.00;;;;110867;1251;41925;-66
2022/05/05 04:27:04;;;;;;;13.70;7.40;;;;;14.50;97888.60;;;;110768;1251;41262;-65
2022/05/05 04:29:33;;;;;;;11.60;6.70;;;;;14.80;97892.80;;;;110749;1251;41154;-66
2022/05/05 04:32:05;;;;;;;11.60;6.10;;;;;15.14;97893.40;;;;110848;1251;42285;-65
2022/05/05 04:34:35;;;;;;;13.30;6.00;;;;;15.44;97893.20;;;;110515;1252;41643;-66
2022/05/05 04:37:05;;;;;;;10.80;5.80;;;;;15.70;97892.20;;;;110797;1251;41268;-66
2022/05/05 04:39:35;;;;;;;10.30;5.10;;;;;16.10;97895.80;;;;110775;1253;41910;-67
2022/05/05 04:42:06;;;;;;;8.80;4.60;;;;;16.60;97899.20;;;;110528;1254;41253;-65
2022/05/05 04:44:36;;;;;;;11.60;5.60;;;;;17.20;97896.60;;;;110789;1251;41389;-66
2022/05/05 04:47:06;;;;;;;10.00;5.00;;;;;17.60;97904.80;;;;110633;1251;41273;-66
2022/05/05 04:49:37;;;;;;;11.30;5.40;;;;;18.10;97899.20;;;;110756;1251;42214;-65
2022/05/05 04:52:07;;;;;;;9.50;4.80;;;;;18.50;97898.20;;;;110747;1251;41163;-65
2022/05/05 04:54:36;;;;;;;8.90;4.50;;;;;18.90;97900.00;;;;110656;1251;42346;-64
2022/05/05 04:57:06;;;;;;;8.90;4.20;;;;;19.40;97903.40;;;;110537;1254;41706;-66
2022/05/05 04:59:35;;;;;;;8.30;4.10;;;;;19.90;97902.00;;;;110719;1252;41470;-67
2022/05/05 05:02:05;;;;;;;9.50;4.70;;;;;20.32;97905.60;;;;110718;1250;41498;-65
2022/05/05 05:04:34;;;;;;;9.50;4.60;;;;;20.50;97903.40;;;;110634;1251;41851;-66
2022/05/05 05:07:04;;;;;;;9.40;4.40;;;;;20.70;97899.80;;;;110591;1252;41348;-66
2022/05/05 05:09:34;;;;;;;7.70;4.00;;;;;20.90;97902.80;;;;110735;1251;41143;-66
2022/05/05 05:12:05;;;;;;;8.60;3.70;;;;;21.32;97907.60;;;;110675;1251;41609;-67
2022/05/05 05:14:34;;;;;;;;;;;;;21.70;97910.20;;;;110654;1251;41731;-66
2022/05/05 05:17:04;;;;;;;7.60;3.80;;;;;22.20;97912.20;;;;110601;1253;41213;-66
2022/05/05 05:19:34;;;;;;;7.00;3.40;;;;;22.40;97909.20;;;;110684;1254;41210;-66
2022/05/05 05:22:05;;;;;;;7.50;3.40;;;;;22.80;97911.80;;;;110933;1250;41288;-67
2022/05/05 05:24:35;;;;;;;8.70;3.30;;;;;22.90;97911.80;;;;110813;1251;41614;-66
2022/05/05 05:27:05;;;;;;;7.00;2.90;;;;;23.30;97912.20;;;;110859;1252;41501;-66
2022/05/05 05:29:34;;;;;;;7.10;3.60;;;;;23.70;97912.60;;;;110611;1252;41608;-66
2022/05/05 05:32:05;;;;;;;8.70;3.40;;;;;24.00;97913.80;;;;110847;1251;41170;-67
2022/05/05 05:34:34;;;;;;;8.40;3.60;;;;;24.14;97912.00;;;;110699;1251;41314;-67
2022/05/05 05:37:04;;;;;;;7.90;3.60;;;;;23.94;97910.60;;;;110710;1251;41148;-66
2022/05/05 05:39:33;;;;;;;9.00;3.30;;;;;23.80;97911.40;;;;110814;1251;41165;-66
2022/05/05 05:42:04;;;;;;;8.40;3.50;;;;;23.90;97911.20;;;;110807;1250;41848;-65
2022/05/05 05:44:33;;;;;;;8.30;3.70;;;;;23.84;97919.00;;;;110824;1250;41160;-65
2022/05/05 05:47:02;;;;;;;6.50;2.80;;;;;23.80;97923.20;;;;110708;1252;41665;-66
2022/05/05 05:49:32;;;;;;;7.20;2.70;;;;;23.92;97924.40;;;;110682;1251;41168;-67
2022/05/05 05:52:02;;;;;;;7.40;2.90;;;;;24.20;97921.60;;;;110795;1251;41139;-68
2022/05/05 05:54:31;;;;;;;6.00;2.70;;;;;24.50;97928.20;;;;110891;1251;41261;-69
2022/05/05 05:57:00;;;;;;;7.70;3.40;;;;;24.90;97927.40;;;;110900;1251;41131;-67
2022/05/05 05:59:29;;;;;;;6.90;2.90;;;;;24.94;97930.00;;;;110719;1251;41217;-67
2022/05/05 06:04:47;;;;;;;8.60;3.00;;;;;25.20;97940.60;;;;110846;1251;41316;-69
2022/05/05 06:07:17;;;;;;;6.80;3.00;;;;;25.50;97940.00;;;;110931;1251;41150;-67
2022/05/05 06:09:46;;;;;;;6.40;2.60;;;;;25.20;97940.80;;;;110645;1252;41273;-68
2022/05/05 06:12:16;;;;;;;7.00;2.60;;;;;25.40;97945.00;;;;111004;1252;41418;-68
2022/05/05 06:14:45;;;;;;;6.60;2.60;;;;;25.90;97941.60;;;;110910;1251;41445;-68
2022/05/05 06:17:14;;;;;;;6.50;2.90;;;;;26.20;97938.00;;;;110813;1251;41181;-67
2022/05/05 06:19:43;;;;;;;8.00;2.90;;;;;25.90;97936.60;;;;110812;1251;41431;-67
2022/05/05 06:22:13;;;;;;;7.50;3.40;;;;;26.00;97944.00;;;;110834;1251;41164;-67
2022/05/05 06:24:42;;;;;;;8.40;3.30;;;;;26.12;97948.60;;;;110818;1251;41547;-67
2022/05/05 06:27:11;;;;;;;6.60;2.90;;;;;25.06;97951.40;;;;110804;1251;41614;-67
2022/05/05 06:29:41;;;;;;;6.90;2.80;;;;;25.16;97957.40;;;;110769;1251;41488;-67
2022/05/05 06:32:11;;;;;;;7.40;2.90;;;;;25.02;97963.40;;;;110870;1251;42366;-68
2022/05/05 06:34:40;;;;;;;10.90;3.80;;;;;25.46;97964.00;;;;110818;1250;41875;-67
2022/05/05 06:37:10;;;;;;;6.30;2.60;;;;;25.16;97967.60;;;;110740;1251;41199;-67
2022/05/05 06:39:39;;;;;;;7.90;3.00;;;;;24.90;97966.80;;;;111101;1251;41141;-68
2022/05/05 06:42:09;;;;;;;7.70;2.90;;;;;25.18;97969.80;;;;110940;1251;41140;-68
2022/05/05 06:44:38;;;;;;;9.20;3.30;;;;;25.48;97965.20;;;;110925;1251;42211;-69
2022/05/05 06:47:07;;;;;;;8.30;3.10;;;;;25.78;97971.80;;;;110976;1251;41252;-68
2022/05/05 06:49:37;;;;;;;7.90;3.10;;;;;25.04;97967.40;;;;110950;1251;41630;-67
2022/05/05 06:52:07;;;;;;;8.60;3.70;;;;;24.44;97972.60;;;;111006;1250;41373;-67
2022/05/05 06:54:53;;;;;;;6.90;2.90;;;;;24.46;97971.80;;;;110993;1250;41960;-68
2022/05/05 06:57:23;;;;;;;5.50;2.50;;;;;24.16;97976.60;;;;111003;1251;41252;-68
2022/05/05 06:59:52;;;;;;;6.90;3.00;;;;;24.20;97980.60;;;;110805;1251;41240;-69
2022/05/05 07:02:22;;;;;;;5.80;2.60;;;;;24.20;97976.20;;;;111035;1251;41160;-69
2022/05/05 07:07:39;;;;;;;5.30;2.60;;;;;23.82;97980.80;;;;110919;1251;41274;-70
2022/05/05 07:12:55;;;;;;;6.70;2.60;;;;;23.74;97976.00;;;;110963;1251;41155;-69
2022/05/05 07:15:24;;;;;;;9.20;2.90;;;;;23.44;97972.80;;;;111039;1250;41261;-69
2022/05/05 07:17:53;;;;;;;8.80;3.10;;;;;23.00;97975.20;;;;110911;1250;41261;-69
2022/05/05 07:20:23;;;;;;;7.20;2.70;;;;;22.38;97972.20;;;;110868;1252;41733;-69
2022/05/05 07:22:52;;;;;;;7.40;3.00;;;;;22.50;97971.60;;;;110982;1251;41162;-71
2022/05/05 07:25:21;;;;;;;5.90;2.60;;;;;22.32;97972.20;;;;110903;1251;41128;-68
2022/05/05 07:27:51;;;;;;;6.80;2.90;;;;;21.88;97977.20;;;;110849;1251;41155;-70
2022/05/05 07:30:20;;;;;;;6.30;3.10;;;;;21.34;97990.60;;;;110865;1251;41178;-69
2022/05/05 07:32:49;;;;;;;5.40;2.60;;;;;21.06;97983.80;;;;110819;1251;42141;-69
2022/05/05 07:35:18;;;;;;;7.50;3.60;;;;;20.90;97988.40;;;;110914;1249;41264;-71
2022/05/05 07:37:47;;;;;;;8.90;3.30;;;;;20.32;97999.00;;;;110954;1251;41362;-69
2022/05/05 07:40:16;;;;;;;8.60;3.40;;;;;19.98;98001.20;;;;110947;1250;41266;-69
2022/05/05 07:42:45;;;;;;;8.00;3.40;;;;;19.90;98004.60;;;;110934;1250;41774;-69
2022/05/05 07:45:15;;;;;;;8.20;3.70;;;;;19.70;98006.60;;;;110882;1252;41617;-68
2022/05/05 07:47:44;;;;;;;9.00;4.10;;;;;20.00;98004.40;;;;111064;1249;42050;-69
2022/05/05 07:50:14;;;;;;;8.30;3.20;;;;;20.50;97998.40;;;;110875;1251;41657;-69
2022/05/05 07:52:49;;;;;;;7.40;3.30;;;;;21.12;97996.20;;;;110896;1251;41188;-68
2022/05/05 07:55:23;;;;;;;8.30;3.60;;;;;21.48;97990.00;;;;110816;1251;41233;-68
2022/05/05 07:57:53;;;;;;;7.30;3.60;;;;;21.70;97986.80;;;;110828;1253;41035;-69
2022/05/05 08:00:23;;;;;;;8.10;3.50;;;;;21.72;97989.60;;;;111010;1251;41152;-70
2022/05/05 08:03:02;;;;;;;7.70;3.40;;;;;21.96;97985.60;;;;110936;1251;41161;-68
2022/05/05 08:05:44;;;;;;;8.10;3.50;;;;;21.70;97987.80;;;;110943;1251;41283;-68
2022/05/05 08:08:14;;;;;;;9.10;3.40;;;;;21.60;97990.20;;;;110947;1250;41398;-69
2022/05/05 08:10:43;;;;;;;8.60;3.80;;;;;22.14;97985.60;;;;110820;1251;41149;-69
2022/05/05 08:13:12;;;;;;;8.20;3.20;;;;;22.80;97980.00;;;;110908;1251;41147;-69
2022/05/05 08:15:41;;;;;;;7.50;3.10;;;;;22.90;97977.00;;;;110793;1253;41390;-69
2022/05/05 08:18:10;;;;;;;8.00;3.50;;;;;23.50;97977.20;;;;110947;1252;41397;-69
2022/05/05 08:20:39;;;;;;;7.80;2.80;;;;;23.36;97974.40;;;;110904;1251;41143;-69
2022/05/05 08:23:08;;;;;;;9.80;3.90;;;;;22.80;97976.00;;;;110881;1251;41261;-68
2022/05/05 08:28:33;;;;;;;7.10;2.80;;;;;23.28;97966.60;;;;110842;1251;41184;-69
2022/05/05 08:31:05;;;;;;;8.30;3.60;;;;;23.30;97970.60;;;;110873;1251;41139;-69
2022/05/05 08:33:35;;;;;;;7.90;3.30;;;;;23.20;97970.80;;;;110785;1251;41161;-68
2022/05/05 08:36:05;;;;;;;8.00;3.40;;;;;23.50;97964.80;;;;110896;1253;41142;-69
2022/05/05 08:38:34;;;;;;;6.70;3.10;;;;;24.22;97965.80;;;;110748;1251;41161;-69
2022/05/05 08:41:03;;;;;;;6.50;2.60;;;;;24.48;97964.40;;;;110884;1251;41149;-69
2022/05/05 08:43:32;;;;;;;9.00;3.00;;;;;24.60;97964.00;;;;110797;1252;41256;-68
2022/05/05 08:46:25;;;;;;;6.50;2.70;;;;;24.84;97959.40;;;;110955;1250;41634;-69
2022/05/05 08:48:59;;;;;;;7.50;2.80;;;;;25.34;97957.00;;;;111112;1248;41159;-68
2022/05/05 08:51:34;;;;;;;5.80;2.50;;;;;25.66;97959.40;;;;110757;1252;41944;-68
2022/05/05 08:54:06;;;;;;;6.30;2.70;;;;;26.22;97958.00;;;;111127;1249;41155;-70
2022/05/05 08:56:35;;;;;;;7.80;2.80;;;;;27.18;97957.80;;;;110851;1250;42456;-69
2022/05/05 08:59:04;;;;;;;5.10;2.20;;;;;27.36;97958.00;;;;111076;1249;41621;-68
2022/05/05 09:01:40;;;;;;;6.10;2.50;;;;;27.62;97958.20;;;;110939;1249;41493;-69
2022/05/05 09:04:09;;;;;;;7.20;2.40;;;;;27.60;97950.60;;;;110847;1249;41154;-69
2022/05/05 09:06:50;;;;;;;6.00;2.60;;;;;27.68;97953.40;;;;110849;1250;41719;-69
2022/05/05 09:09:26;;;;;;;;;;;;;27.48;97953.40;;;;110829;1250;41370;-69
2022/05/05 09:12:11;;;;;;;5.60;2.30;;;;;27.20;97952.60;;;;110883;1251;42767;-68
2022/05/05 09:14:53;;;;;;;4.00;1.90;;;;;27.00;97955.20;;;;111109;1250;41154;-70
2022/05/05 09:17:25;;;;;;;5.30;2.30;;;;;27.64;97958.00;;;;110946;1250;41140;-69
2022/05/05 09:19:55;;;;;;;4.70;2.20;;;;;28.44;97952.20;;;;111157;1250;41144;-69
2022/05/05 09:22:26;;;;;;;7.20;2.40;;;;;29.22;97953.00;;;;111134;1250;41179;-70
2022/05/05 09:24:57;;;;;;;7.10;2.90;;;;;29.60;97937.60;;;;111061;1250;41243;-69
2022/05/05 09:27:33;;;;;;;6.40;2.50;;;;;28.96;97949.60;;;;110697;1250;41669;-69
2022/05/05 09:30:07;;;;;;;6.20;2.50;;;;;28.42;97952.80;;;;110853;1250;41150;-70
2022/05/05 09:32:40;;;;;;;5.60;2.50;;;;;28.62;97950.40;;;;111101;1250;42067;-70
2022/05/05 09:35:11;;;;;;;8.40;2.70;;;;;28.50;97953.20;;;;110881;1250;41131;-70
2022/05/05 09:37:45;;;;;;;4.60;2.10;;;;;28.22;97955.80;;;;111059;1250;41417;-71
2022/05/05 09:40:24;;;;;;;7.40;2.80;;;;;27.82;97958.20;;;;110932;1250;41155;-71
2022/05/05 09:42:55;;;;;;;4.30;2.00;;;;;28.34;97957.00;;;;111007;1249;41630;-69
2022/05/05 09:45:32;;;;;;;6.60;2.60;;;;;28.10;97957.80;;;;110813;1250;41262;-69
2022/05/05 09:48:02;;;;;;;6.80;2.70;;;;;28.66;97951.00;;;;110809;1250;41862;-71
2022/05/05 09:50:33;;;;;;;6.10;2.20;;;;;27.98;97946.00;;;;110993;1250;41154;-71
2022/05/05 09:58:39;;;;;;;6.30;2.50;;;;;29.10;97947.40;;;;110516;1250;41124;-70
2022/05/05 10:01:13;;;;;;;;;;;;;29.96;97940.60;;;;111051;1249;41145;-69
2022/05/05 10:04:03;;;;;;;5.70;2.30;;;;;30.08;97932.80;;;;111026;1249;41146;-69
2022/05/05 10:06:52;;;;;;;7.10;2.40;;;;;29.98;97933.60;;;;111079;1249;41167;-69
2022/05/05 10:09:23;;;;;;;5.70;2.00;;;;;29.68;97929.00;;;;111073;1250;42374;-70
2022/05/05 10:11:52;;;;;;;4.30;1.80;;;;;29.40;97946.60;;;;110939;1250;41371;-69
2022/05/05 10:14:21;;;;;;;3.80;1.90;;;;;29.00;97950.80;;;;111130;1248;41621;-68
2022/05/05 10:16:50;;;;;;;4.80;1.90;;;;;28.54;97946.60;;;;111017;1250;41246;-71
2022/05/05 10:19:19;;;;;;;4.60;2.00;;;;;28.62;97947.20;;;;110990;1250;41259;-69
2022/05/05 10:21:56;;;;;;;5.40;2.20;;;;;28.60;97953.00;;;;110909;1248;41141;-69
2022/05/05 10:24:30;;;;;;;4.90;1.90;;;;;28.36;97952.40;;;;111204;1247;41619;-69
2022/05/05 10:27:03;;;;;;;4.80;2.20;;;;;28.02;97945.80;;;;111212;1245;41269;-69
2022/05/05 10:29:42;;;;;;;6.40;2.40;;;;;27.92;97949.80;;;;110818;1250;41301;-69
2022/05/05 10:32:21;;;;;;;4.70;2.10;;;;;27.38;97953.40;;;;111090;1250;41060;-70
2022/05/05 10:35:12;;;;;;;6.90;2.20;;;;;27.00;97944.20;;;;110869;1250;41277;-69
2022/05/05 10:37:42;;;;;;;4.40;1.80;;;;;27.42;97952.00;;;;111034;1250;41263;-69
2022/05/05 10:40:11;;;;;;;4.40;1.90;;;;;27.62;97951.80;;;;111048;1250;41341;-69
2022/05/05 10:42:44;;;;;;;8.60;2.90;;;;;27.78;97949.40;;;;111008;1250;41288;-68
2022/05/05 10:45:20;;;;;;;6.30;2.50;;;;;27.58;97947.40;;;;110977;1250;41162;-69
2022/05/05 10:48:06;;;;;;;7.90;2.40;;;;;26.72;97948.20;;;;110998;1250;41980;-69
2022/05/05 10:50:39;;;;;;;5.20;2.10;;;;;26.92;97941.00;;;;111078;1250;41200;-69
2022/05/05 10:53:08;;;;;;;6.30;2.50;;;;;26.82;97937.00;;;;111051;1250;41777;-69
2022/05/05 10:55:40;;;;;;;8.30;2.80;;;;;27.38;97940.20;;;;110806;1250;41882;-69
2022/05/05 10:59:04;;;;;;;5.90;2.30;;;;;26.86;97940.60;;;;110962;1250;41140;-69
2022/05/05 11:01:46;;;;;;;4.80;2.20;;;;;26.72;97939.00;;;;110843;1251;41171;-69
2022/05/05 11:04:17;;;;;;;7.90;2.90;;;;;27.00;97934.20;;;;110995;1248;41888;-68
2022/05/05 11:06:48;;;;;;;;;;;;;27.60;97938.00;;;;110903;1248;42199;-67
2022/05/05 11:09:32;;;;;;;4.40;2.10;;;;;28.20;97936.20;;;;110954;1250;41269;-71
2022/05/05 11:12:19;;;;;;;6.60;2.70;;;;;28.32;97932.00;;;;110961;1250;42177;-69
2022/05/05 11:23:42;;;;;;;6.30;2.00;;;;;31.48;97909.80;;;;110764;1251;41620;-69
2022/05/05 11:26:15;;;;;;;4.40;1.90;;;;;31.76;97910.80;;;;110906;1248;41709;-70
2022/05/05 11:28:45;;;;;;;6.40;1.90;;;;;32.82;97909.80;;;;110788;1250;41810;-69
2022/05/05 11:31:19;;;;;;;3.30;1.70;;;;;33.88;97902.00;;;;110896;1250;41167;-69
2022/05/05 11:33:55;;;;;;;5.30;1.80;;;;;34.68;97901.80;;;;110809;1250;41143;-68
2022/05/05 11:36:34;;;;;;;3.60;1.70;;;;;35.24;97897.00;;;;110758;1250;41182;-69
2022/05/05 11:39:03;;;;;;;4.80;1.80;;;;;36.18;97894.60;;;;110927;1251;41258;-68
2022/05/05 11:41:32;;;;;;;4.30;1.70;;;;;36.14;97889.00;;;;110980;1250;42473;-68
2022/05/05 11:44:20;;;;;;;5.50;1.70;;;;;36.20;97900.40;;;;110992;1250;41161;-70
2022/05/05 11:46:49;;;;;;;5.50;1.70;;;;;35.96;97891.40;;;;111011;1250;41130;-71
2022/05/05 11:49:20;;;;;;;4.20;1.80;;;;;35.90;97886.20;;;;110934;1249;41267;-71
2022/05/05 11:51:49;;;;;;;4.20;1.70;;;;;35.72;97891.40;;;;110957;1250;41148;-71
2022/05/05 11:54:29;;;;;;;3.80;1.50;;;;;35.72;97893.80;;;;111034;1249;41623;-69
2022/05/05 11:57:00;;;;;;;6.30;2.00;;;;;35.50;97892.00;;;;111006;1250;41173;-70
2022/05/05 12:02:24;;;;;;;5.10;2.10;;;;;33.10;97903.00;;;;110790;1251;41146;-69
2022/05/05 12:04:57;;;;;;;5.90;2.00;;;;;31.26;97908.20;;;;110868;1250;41182;-68
2022/05/05 12:07:28;;;;;;;4.70;1.90;;;;;29.50;97910.40;;;;110665;1250;41251;-69
2022/05/05 12:09:58;;;;;;;4.00;1.80;;;;;28.60;97913.20;;;;110876;1250;41241;-69
2022/05/05 12:12:30;;;;;;;3.30;1.60;;;;;28.28;97906.00;;;;110978;1250;41962;-70
2022/05/05 12:15:01;;;;;;;3.30;1.70;;;;;28.10;97906.60;;;;110906;1250;41138;-71
2022/05/05 12:17:39;;;;;;;4.70;1.70;;;;;28.82;97894.00;;;;111098;1249;41869;-69
2022/05/05 12:20:11;;;;;;;3.90;1.70;;;;;29.54;97896.00;;;;110991;1251;41603;-69
2022/05/05 12:22:41;;;;;;;3.20;1.60;;;;;29.90;97900.60;;;;110956;1250;41241;-68
2022/05/05 12:25:14;;;;;;;3.40;1.60;;;;;29.90;97904.60;;;;111037;1250;41913;-69
2022/05/05 12:28:02;;;;;;;3.60;1.80;;;;;30.00;97903.40;;;;111036;1249;41896;-71
2022/05/05 12:30:32;;;;;;;4.80;2.00;;;;;29.98;97901.60;;;;110919;1250;41127;-70
2022/05/05 12:33:03;;;;;;;4.50;1.90;;;;;29.44;97900.20;;;;110922;1250;41169;-69
2022/05/05 12:35:44;;;;;;;4.70;1.80;;;;;28.98;97899.00;;;;110941;1250;42983;-69
2022/05/05 12:38:14;;;;;;;3.30;1.80;;;;;28.64;97896.60;;;;110983;1250;41128;-69
2022/05/05 12:40:44;;;;;;;5.00;1.70;;;;;28.30;97899.60;;;;110951;1250;41607;-71
2022/05/05 12:43:20;;;;;;;3.70;1.80;;;;;28.08;97897.40;;;;110722;1250;41150;-69
2022/05/05 12:45:50;;;;;;;5.10;1.90;;;;;27.80;97896.20;;;;110930;1251;41983;-70
2022/05/05 12:48:20;;;;;;;4.60;1.80;;;;;27.60;97892.60;;;;110793;1251;42358;-71
2022/05/05 12:50:51;;;;;;;5.70;2.50;;;;;27.30;97890.80;;;;110988;1250;41936;-71
2022/05/05 13:01:53;;;;;;;8.00;2.60;;;;;25.28;97887.40;;;;110946;1250;42231;-68
2022/05/05 13:04:23;;;;;;;5.10;2.30;;;;;24.96;97892.20;;;;110972;1250;41182;-70
2022/05/05 13:06:52;;;;;;;5.00;2.40;;;;;24.20;97889.80;;;;110838;1251;41637;-70
2022/05/05 13:09:21;;;;;;;5.00;2.20;;;;;24.06;97888.40;;;;110926;1250;41142;-70
2022/05/05 13:11:53;;;;;;;5.80;2.10;;;;;23.90;97886.40;;;;110950;1250;41177;-70
2022/05/05 13:14:23;;;;;;;5.60;2.00;;;;;24.00;97881.80;;;;110940;1250;41584;-70
2022/05/05 13:16:53;;;;;;;5.90;2.20;;;;;24.16;97878.20;;;;110857;1250;40744;-72
2022/05/05 13:19:23;;;;;;;8.00;2.30;;;;;24.30;97877.00;;;;110947;1250;41202;-72